sensor_id;sensor_type;location;lat;lon;timestamp;temperature;humidity
51007;DHT22;37034;47.886;-3.904;2023-02-28T00:00:23;7.30;82.30
51007;DHT22;37034;47.886;-3.904;2023-02-28T00:02:49;7.30;82.80
51007;DHT22;37034;47.886;-3.904;2023-02-28T00:05:18;7.30;82.70
51007;DHT22;37034;47.886;-3.904;2023-02-28T00:07:44;7.30;82.90
51007;DHT22;37034;47.886;-3.904;2023-02-28T00:10:13;7.30;82.40
51007;DHT22;37034;47.886;-3.904;2023-02-28T00:12:39;7.30;82.70
51007;DHT22;37034;47.886;-3.904;2023-02-28T00:15:10;7.30;82.70
51007;DHT22;37034;47.886;-3.904;2023-02-28T00:17:36;7.30;82.80
51007;DHT22;37034;47.886;-3.904;2023-02-28T00:20:04;7.30;82.60
51007;DHT22;37034;47.886;-3.904;2023-02-28T00:22:33;7.30;83.10
51007;DHT22;37034;47.886;-3.904;2023-02-28T00:24:58;7.20;82.80
51007;DHT22;37034;47.886;-3.904;2023-02-28T00:27:24;7.20;83.60
51007;DHT22;37034;47.886;-3.904;2023-02-28T00:29:50;7.20;83.30
51007;DHT22;37034;47.886;-3.904;2023-02-28T00:32:15;7.10;83.40
51007;DHT22;37034;47.886;-3.904;2023-02-28T00:34:41;7.10;83.20
51007;DHT22;37034;47.886;-3.904;2023-02-28T00:37:08;7.10;83.40
51007;DHT22;37034;47.886;-3.904;2023-02-28T00:39:35;7.10;83.50
51007;DHT22;37034;47.886;-3.904;2023-02-28T00:42:02;7.10;83.50
51007;DHT22;37034;47.886;-3.904;2023-02-28T00:44:28;7.00;84.00
51007;DHT22;37034;47.886;-3.904;2023-02-28T00:46:54;7.00;84.00
51007;DHT22;37034;47.886;-3.904;2023-02-28T00:49:21;7.00;84.40
51007;DHT22;37034;47.886;-3.904;2023-02-28T00:51:47;6.90;84.60
51007;DHT22;37034;47.886;-3.904;2023-02-28T00:54:12;6.90;84.60
51007;DHT22;37034;47.886;-3.904;2023-02-28T00:56:38;6.90;84.50
51007;DHT22;37034;47.886;-3.904;2023-02-28T00:59:03;6.90;84.80
51007;DHT22;37034;47.886;-3.904;2023-02-28T01:01:29;6.90;85.00
51007;DHT22;37034;47.886;-3.904;2023-02-28T01:03:55;6.90;85.00
51007;DHT22;37034;47.886;-3.904;2023-02-28T01:06:20;6.90;84.90
51007;DHT22;37034;47.886;-3.904;2023-02-28T01:08:46;6.90;84.80
51007;DHT22;37034;47.886;-3.904;2023-02-28T01:11:14;6.90;84.90
51007;DHT22;37034;47.886;-3.904;2023-02-28T01:13:41;6.90;85.70
51007;DHT22;37034;47.886;-3.904;2023-02-28T01:16:07;6.90;86.10
51007;DHT22;37034;47.886;-3.904;2023-02-28T01:18:33;6.90;86.80
51007;DHT22;37034;47.886;-3.904;2023-02-28T01:21:10;7.00;85.70
51007;DHT22;37034;47.886;-3.904;2023-02-28T01:23:36;7.00;86.20
51007;DHT22;37034;47.886;-3.904;2023-02-28T01:26:19;7.00;85.50
51007;DHT22;37034;47.886;-3.904;2023-02-28T01:28:45;6.90;85.60
51007;DHT22;37034;47.886;-3.904;2023-02-28T01:31:12;6.90;85.50
51007;DHT22;37034;47.886;-3.904;2023-02-28T01:33:38;6.90;85.90
51007;DHT22;37034;47.886;-3.904;2023-02-28T01:36:05;6.90;85.40
51007;DHT22;37034;47.886;-3.904;2023-02-28T01:38:32;6.80;86.30
51007;DHT22;37034;47.886;-3.904;2023-02-28T01:40:58;6.80;85.70
51007;DHT22;37034;47.886;-3.904;2023-02-28T01:43:32;6.80;85.50
51007;DHT22;37034;47.886;-3.904;2023-02-28T01:45:59;6.70;85.40
51007;DHT22;37034;47.886;-3.904;2023-02-28T01:48:31;6.70;85.40
51007;DHT22;37034;47.886;-3.904;2023-02-28T01:51:02;6.70;85.50
51007;DHT22;37034;47.886;-3.904;2023-02-28T01:53:34;6.70;85.50
51007;DHT22;37034;47.886;-3.904;2023-02-28T01:56:04;6.70;85.40
51007;DHT22;37034;47.886;-3.904;2023-02-28T01:58:30;6.70;85.70
51007;DHT22;37034;47.886;-3.904;2023-02-28T02:00:56;6.70;85.80
51007;DHT22;37034;47.886;-3.904;2023-02-28T02:03:23;6.60;85.80
51007;DHT22;37034;47.886;-3.904;2023-02-28T02:05:49;6.60;85.80
51007;DHT22;37034;47.886;-3.904;2023-02-28T02:08:18;6.60;86.70
51007;DHT22;37034;47.886;-3.904;2023-02-28T02:10:53;6.60;86.00
51007;DHT22;37034;47.886;-3.904;2023-02-28T02:18:47;6.50;86.60
51007;DHT22;37034;47.886;-3.904;2023-02-28T02:27:03;6.40;87.00
51007;DHT22;37034;47.886;-3.904;2023-02-28T02:45:38;6.40;87.10
51007;DHT22;37034;47.886;-3.904;2023-02-28T02:48:08;6.40;87.70
51007;DHT22;37034;47.886;-3.904;2023-02-28T02:50:43;6.40;87.50
51007;DHT22;37034;47.886;-3.904;2023-02-28T02:53:11;6.40;87.10
51007;DHT22;37034;47.886;-3.904;2023-02-28T02:55:41;6.40;87.80
51007;DHT22;37034;47.886;-3.904;2023-02-28T02:58:14;6.40;87.20
51007;DHT22;37034;47.886;-3.904;2023-02-28T03:00:43;6.40;87.00
51007;DHT22;37034;47.886;-3.904;2023-02-28T03:03:12;6.40;86.90
51007;DHT22;37034;47.886;-3.904;2023-02-28T03:05:50;6.40;87.00
51007;DHT22;37034;47.886;-3.904;2023-02-28T03:08:16;6.40;87.10
51007;DHT22;37034;47.886;-3.904;2023-02-28T03:10:44;6.40;86.70
51007;DHT22;37034;47.886;-3.904;2023-02-28T03:24:49;6.10;88.10
51007;DHT22;37034;47.886;-3.904;2023-02-28T03:27:27;6.10;87.90
51007;DHT22;37034;47.886;-3.904;2023-02-28T03:30:09;6.00;87.80
51007;DHT22;37034;47.886;-3.904;2023-02-28T03:35:13;6.00;87.80
51007;DHT22;37034;47.886;-3.904;2023-02-28T03:37:42;6.00;88.30
51007;DHT22;37034;47.886;-3.904;2023-02-28T03:40:13;5.90;88.50
51007;DHT22;37034;47.886;-3.904;2023-02-28T03:42:42;5.90;89.10
51007;DHT22;37034;47.886;-3.904;2023-02-28T03:45:19;5.90;89.90
51007;DHT22;37034;47.886;-3.904;2023-02-28T03:47:52;5.90;90.30
51007;DHT22;37034;47.886;-3.904;2023-02-28T03:50:25;5.90;90.80
51007;DHT22;37034;47.886;-3.904;2023-02-28T03:52:59;5.90;91.10
51007;DHT22;37034;47.886;-3.904;2023-02-28T03:55:30;5.90;91.50
51007;DHT22;37034;47.886;-3.904;2023-02-28T04:00:40;6.00;91.70
51007;DHT22;37034;47.886;-3.904;2023-02-28T04:03:10;6.00;91.80
51007;DHT22;37034;47.886;-3.904;2023-02-28T04:05:45;5.90;92.00
51007;DHT22;37034;47.886;-3.904;2023-02-28T04:08:11;5.90;92.50
51007;DHT22;37034;47.886;-3.904;2023-02-28T04:10:37;5.90;92.60
51007;DHT22;37034;47.886;-3.904;2023-02-28T04:13:04;5.90;92.50
51007;DHT22;37034;47.886;-3.904;2023-02-28T04:15:29;5.90;93.10
51007;DHT22;37034;47.886;-3.904;2023-02-28T04:17:55;5.90;92.80
51007;DHT22;37034;47.886;-3.904;2023-02-28T04:20:21;5.90;92.60
51007;DHT22;37034;47.886;-3.904;2023-02-28T04:22:46;5.90;92.90
51007;DHT22;37034;47.886;-3.904;2023-02-28T04:25:12;5.80;92.90
51007;DHT22;37034;47.886;-3.904;2023-02-28T04:27:37;5.80;93.10
51007;DHT22;37034;47.886;-3.904;2023-02-28T04:30:03;5.80;93.30
51007;DHT22;37034;47.886;-3.904;2023-02-28T04:32:29;5.90;93.40
51007;DHT22;37034;47.886;-3.904;2023-02-28T04:34:55;5.90;93.40
51007;DHT22;37034;47.886;-3.904;2023-02-28T04:37:20;5.90;93.50
51007;DHT22;37034;47.886;-3.904;2023-02-28T04:39:46;6.00;93.80
51007;DHT22;37034;47.886;-3.904;2023-02-28T04:42:12;6.00;94.00
51007;DHT22;37034;47.886;-3.904;2023-02-28T04:44:38;6.10;94.20
51007;DHT22;37034;47.886;-3.904;2023-02-28T04:47:04;6.10;94.30
51007;DHT22;37034;47.886;-3.904;2023-02-28T04:49:30;6.20;94.60
51007;DHT22;37034;47.886;-3.904;2023-02-28T04:51:55;6.20;94.80
51007;DHT22;37034;47.886;-3.904;2023-02-28T04:54:21;6.30;95.00
51007;DHT22;37034;47.886;-3.904;2023-02-28T04:56:47;6.30;94.90
51007;DHT22;37034;47.886;-3.904;2023-02-28T04:59:15;6.30;95.00
51007;DHT22;37034;47.886;-3.904;2023-02-28T05:01:40;6.50;94.90
51007;DHT22;37034;47.886;-3.904;2023-02-28T05:04:10;6.50;95.20
51007;DHT22;37034;47.886;-3.904;2023-02-28T05:06:36;6.50;95.00
51007;DHT22;37034;47.886;-3.904;2023-02-28T05:09:01;6.60;95.00
51007;DHT22;37034;47.886;-3.904;2023-02-28T05:11:32;6.60;95.20
51007;DHT22;37034;47.886;-3.904;2023-02-28T05:14:09;6.50;96.60
51007;DHT22;37034;47.886;-3.904;2023-02-28T05:16:35;6.60;97.20
51007;DHT22;37034;47.886;-3.904;2023-02-28T05:19:01;6.60;98.20
51007;DHT22;37034;47.886;-3.904;2023-02-28T05:21:32;6.60;98.20
51007;DHT22;37034;47.886;-3.904;2023-02-28T05:24:00;6.60;97.10
51007;DHT22;37034;47.886;-3.904;2023-02-28T05:26:27;6.60;97.20
51007;DHT22;37034;47.886;-3.904;2023-02-28T05:28:53;6.60;97.30
51007;DHT22;37034;47.886;-3.904;2023-02-28T05:31:20;6.60;97.30
51007;DHT22;37034;47.886;-3.904;2023-02-28T05:33:46;6.60;97.40
51007;DHT22;37034;47.886;-3.904;2023-02-28T05:36:12;6.70;97.50
51007;DHT22;37034;47.886;-3.904;2023-02-28T05:38:38;6.70;97.70
51007;DHT22;37034;47.886;-3.904;2023-02-28T05:41:10;6.70;97.70
51007;DHT22;37034;47.886;-3.904;2023-02-28T05:43:36;6.70;97.90
51007;DHT22;37034;47.886;-3.904;2023-02-28T05:46:12;6.70;97.90
51007;DHT22;37034;47.886;-3.904;2023-02-28T05:48:39;6.70;97.90
51007;DHT22;37034;47.886;-3.904;2023-02-28T05:51:06;6.70;97.80
51007;DHT22;37034;47.886;-3.904;2023-02-28T05:53:32;6.70;98.10
51007;DHT22;37034;47.886;-3.904;2023-02-28T05:55:59;6.70;98.20
51007;DHT22;37034;47.886;-3.904;2023-02-28T05:58:26;6.70;98.40
51007;DHT22;37034;47.886;-3.904;2023-02-28T06:00:59;6.60;98.50
51007;DHT22;37034;47.886;-3.904;2023-02-28T06:03:25;6.60;98.70
51007;DHT22;37034;47.886;-3.904;2023-02-28T06:05:51;6.50;98.80
51007;DHT22;37034;47.886;-3.904;2023-02-28T06:08:16;6.50;98.90
51007;DHT22;37034;47.886;-3.904;2023-02-28T06:10:42;6.50;99.50
51007;DHT22;37034;47.886;-3.904;2023-02-28T06:13:08;6.40;99.60
51007;DHT22;37034;47.886;-3.904;2023-02-28T06:18:00;6.30;82.90
51007;DHT22;37034;47.886;-3.904;2023-02-28T06:20:27;6.30;83.70
51007;DHT22;37034;47.886;-3.904;2023-02-28T06:22:58;6.20;83.00
51007;DHT22;37034;47.886;-3.904;2023-02-28T06:25:25;6.20;83.20
51007;DHT22;37034;47.886;-3.904;2023-02-28T06:27:51;6.20;83.50
51007;DHT22;37034;47.886;-3.904;2023-02-28T06:30:17;6.10;83.50
51007;DHT22;37034;47.886;-3.904;2023-02-28T06:32:43;6.10;83.40
51007;DHT22;37034;47.886;-3.904;2023-02-28T06:35:09;6.10;83.40
51007;DHT22;37034;47.886;-3.904;2023-02-28T06:37:35;6.10;83.50
51007;DHT22;37034;47.886;-3.904;2023-02-28T06:40:01;6.00;83.60
51007;DHT22;37034;47.886;-3.904;2023-02-28T06:42:27;6.00;83.80
51007;DHT22;37034;47.886;-3.904;2023-02-28T06:44:56;6.00;84.00
51007;DHT22;37034;47.886;-3.904;2023-02-28T06:47:22;5.90;83.60
51007;DHT22;37034;47.886;-3.904;2023-02-28T06:49:48;6.00;83.50
51007;DHT22;37034;47.886;-3.904;2023-02-28T06:52:14;6.00;83.60
51007;DHT22;37034;47.886;-3.904;2023-02-28T06:54:40;5.90;83.40
51007;DHT22;37034;47.886;-3.904;2023-02-28T06:57:05;5.90;83.60
51007;DHT22;37034;47.886;-3.904;2023-02-28T06:59:31;5.90;83.20
51007;DHT22;37034;47.886;-3.904;2023-02-28T07:01:56;5.90;83.30
51007;DHT22;37034;47.886;-3.904;2023-02-28T07:04:22;5.90;83.90
51007;DHT22;37034;47.886;-3.904;2023-02-28T07:06:48;5.80;83.80
51007;DHT22;37034;47.886;-3.904;2023-02-28T07:09:14;5.80;83.90
51007;DHT22;37034;47.886;-3.904;2023-02-28T07:11:40;5.80;83.60
51007;DHT22;37034;47.886;-3.904;2023-02-28T07:14:06;5.80;83.60
51007;DHT22;37034;47.886;-3.904;2023-02-28T07:16:32;5.80;83.60
51007;DHT22;37034;47.886;-3.904;2023-02-28T07:18:58;5.80;83.70
51007;DHT22;37034;47.886;-3.904;2023-02-28T07:21:24;5.80;83.60
51007;DHT22;37034;47.886;-3.904;2023-02-28T07:23:50;5.80;83.40
51007;DHT22;37034;47.886;-3.904;2023-02-28T07:26:17;5.70;83.70
51007;DHT22;37034;47.886;-3.904;2023-02-28T07:28:44;5.70;84.80
51007;DHT22;37034;47.886;-3.904;2023-02-28T07:31:10;5.70;84.60
51007;DHT22;37034;47.886;-3.904;2023-02-28T07:33:37;5.70;84.60
51007;DHT22;37034;47.886;-3.904;2023-02-28T07:36:08;5.70;85.00
51007;DHT22;37034;47.886;-3.904;2023-02-28T07:38:36;5.80;84.90
51007;DHT22;37034;47.886;-3.904;2023-02-28T07:41:03;5.80;85.50
51007;DHT22;37034;47.886;-3.904;2023-02-28T07:43:32;5.80;85.40
51007;DHT22;37034;47.886;-3.904;2023-02-28T07:46:06;5.80;84.90
51007;DHT22;37034;47.886;-3.904;2023-02-28T07:48:32;5.80;84.50
51007;DHT22;37034;47.886;-3.904;2023-02-28T07:50:59;5.80;84.50
51007;DHT22;37034;47.886;-3.904;2023-02-28T07:53:25;5.80;84.60
51007;DHT22;37034;47.886;-3.904;2023-02-28T07:55:55;5.90;84.90
51007;DHT22;37034;47.886;-3.904;2023-02-28T07:58:21;5.90;85.00
51007;DHT22;37034;47.886;-3.904;2023-02-28T08:00:47;5.90;85.00
51007;DHT22;37034;47.886;-3.904;2023-02-28T08:03:13;5.90;85.20
51007;DHT22;37034;47.886;-3.904;2023-02-28T08:05:41;6.00;85.60
51007;DHT22;37034;47.886;-3.904;2023-02-28T08:08:08;6.00;85.60
51007;DHT22;37034;47.886;-3.904;2023-02-28T08:10:33;6.10;85.70
51007;DHT22;37034;47.886;-3.904;2023-02-28T08:12:59;6.10;86.00
51007;DHT22;37034;47.886;-3.904;2023-02-28T08:15:25;6.10;86.00
51007;DHT22;37034;47.886;-3.904;2023-02-28T08:17:51;6.20;86.40
51007;DHT22;37034;47.886;-3.904;2023-02-28T08:20:17;6.20;86.40
51007;DHT22;37034;47.886;-3.904;2023-02-28T08:22:42;6.30;86.50
51007;DHT22;37034;47.886;-3.904;2023-02-28T08:25:08;6.30;86.60
51007;DHT22;37034;47.886;-3.904;2023-02-28T08:27:35;6.40;86.80
51007;DHT22;37034;47.886;-3.904;2023-02-28T08:30:01;6.50;87.10
51007;DHT22;37034;47.886;-3.904;2023-02-28T08:32:26;6.60;86.90
51007;DHT22;37034;47.886;-3.904;2023-02-28T08:34:52;6.70;86.60
51007;DHT22;37034;47.886;-3.904;2023-02-28T08:37:18;6.70;86.50
51007;DHT22;37034;47.886;-3.904;2023-02-28T08:39:43;6.60;86.80
51007;DHT22;37034;47.886;-3.904;2023-02-28T08:42:09;6.80;87.20
51007;DHT22;37034;47.886;-3.904;2023-02-28T08:44:35;6.70;86.80
51007;DHT22;37034;47.886;-3.904;2023-02-28T08:47:00;6.80;87.20
51007;DHT22;37034;47.886;-3.904;2023-02-28T08:49:26;7.00;86.70
51007;DHT22;37034;47.886;-3.904;2023-02-28T08:51:52;7.00;86.80
51007;DHT22;37034;47.886;-3.904;2023-02-28T08:54:17;7.20;86.50
51007;DHT22;37034;47.886;-3.904;2023-02-28T08:56:45;7.30;86.30
51007;DHT22;37034;47.886;-3.904;2023-02-28T08:59:13;7.30;86.20
51007;DHT22;37034;47.886;-3.904;2023-02-28T09:01:39;7.40;86.30
51007;DHT22;37034;47.886;-3.904;2023-02-28T09:04:06;7.20;85.70
51007;DHT22;37034;47.886;-3.904;2023-02-28T09:06:34;7.20;87.20
51007;DHT22;37034;47.886;-3.904;2023-02-28T09:09:00;7.30;86.50
51007;DHT22;37034;47.886;-3.904;2023-02-28T09:11:27;7.50;86.20
51007;DHT22;37034;47.886;-3.904;2023-02-28T09:13:53;7.50;86.50
51007;DHT22;37034;47.886;-3.904;2023-02-28T09:16:19;7.70;86.30
51007;DHT22;37034;47.886;-3.904;2023-02-28T09:18:44;7.80;86.00
51007;DHT22;37034;47.886;-3.904;2023-02-28T09:21:12;7.90;85.80
51007;DHT22;37034;47.886;-3.904;2023-02-28T09:23:43;8.00;86.00
51007;DHT22;37034;47.886;-3.904;2023-02-28T09:26:14;8.10;84.60
51007;DHT22;37034;47.886;-3.904;2023-02-28T09:28:40;8.20;85.00
51007;DHT22;37034;47.886;-3.904;2023-02-28T09:31:10;8.30;85.40
51007;DHT22;37034;47.886;-3.904;2023-02-28T09:33:37;8.40;85.30
51007;DHT22;37034;47.886;-3.904;2023-02-28T09:36:03;8.50;84.70
51007;DHT22;37034;47.886;-3.904;2023-02-28T09:38:29;8.60;84.70
51007;DHT22;37034;47.886;-3.904;2023-02-28T09:40:58;8.70;84.90
51007;DHT22;37034;47.886;-3.904;2023-02-28T09:43:37;8.90;84.00
51007;DHT22;37034;47.886;-3.904;2023-02-28T09:48:58;9.00;83.20
51007;DHT22;37034;47.886;-3.904;2023-02-28T09:54:17;9.00;82.90
51007;DHT22;37034;47.886;-3.904;2023-02-28T09:56:48;8.40;82.60
51007;DHT22;37034;47.886;-3.904;2023-02-28T10:02:12;8.80;83.40
51007;DHT22;37034;47.886;-3.904;2023-02-28T10:04:55;8.90;83.20
51007;DHT22;37034;47.886;-3.904;2023-02-28T10:12:52;9.00;81.60
51007;DHT22;37034;47.886;-3.904;2023-02-28T10:15:21;9.00;82.30
51007;DHT22;37034;47.886;-3.904;2023-02-28T10:17:53;8.80;81.80
51007;DHT22;37034;47.886;-3.904;2023-02-28T10:20:22;9.10;82.50
51007;DHT22;37034;47.886;-3.904;2023-02-28T10:23:19;8.90;81.50
51007;DHT22;37034;47.886;-3.904;2023-02-28T10:25:53;8.90;81.80
